sensor_id;sensor_type;location;lat;lon;timestamp;P1;durP1;ratioP1;P2;durP2;ratioP2
21418;SDS011;10870;51.384;10.316;2023-02-28T00:02:02;3.70;;;2.55;;
21418;SDS011;10870;51.384;10.316;2023-02-28T00:04:03;5.35;;;2.78;;
21418;SDS011;10870;51.384;10.316;2023-02-28T00:06:05;4.07;;;2.58;;
21418;SDS011;10870;51.384;10.316;2023-02-28T00:08:07;3.00;;;2.45;;
21418;SDS011;10870;51.384;10.316;2023-02-28T00:10:10;5.32;;;2.55;;
21418;SDS011;10870;51.384;10.316;2023-02-28T00:12:12;4.78;;;2.50;;
21418;SDS011;10870;51.384;10.316;2023-02-28T00:14:22;4.47;;;2.70;;
21418;SDS011;10870;51.384;10.316;2023-02-28T00:16:38;3.15;;;2.85;;
21418;SDS011;10870;51.384;10.316;2023-02-28T00:18:39;4.22;;;3.20;;
21418;SDS011;10870;51.384;10.316;2023-02-28T00:20:41;3.58;;;2.78;;
21418;SDS011;10870;51.384;10.316;2023-02-28T00:22:43;5.38;;;3.70;;
21418;SDS011;10870;51.384;10.316;2023-02-28T00:24:45;4.15;;;2.80;;
21418;SDS011;10870;51.384;10.316;2023-02-28T00:26:47;3.30;;;3.03;;
21418;SDS011;10870;51.384;10.316;2023-02-28T00:28:48;5.82;;;3.33;;
21418;SDS011;10870;51.384;10.316;2023-02-28T00:30:50;3.75;;;3.10;;
21418;SDS011;10870;51.384;10.316;2023-02-28T00:32:51;3.05;;;2.40;;
21418;SDS011;10870;51.384;10.316;2023-02-28T00:34:52;3.10;;;2.35;;
21418;SDS011;10870;51.384;10.316;2023-02-28T00:36:56;2.63;;;2.10;;
21418;SDS011;10870;51.384;10.316;2023-02-28T00:39:00;2.45;;;1.98;;
21418;SDS011;10870;51.384;10.316;2023-02-28T00:41:06;4.47;;;2.17;;
21418;SDS011;10870;51.384;10.316;2023-02-28T00:43:08;4.18;;;2.15;;
21418;SDS011;10870;51.384;10.316;2023-02-28T00:45:09;3.88;;;1.88;;
21418;SDS011;10870;51.384;10.316;2023-02-28T00:47:11;3.05;;;1.80;;
21418;SDS011;10870;51.384;10.316;2023-02-28T00:49:12;2.53;;;1.92;;
21418;SDS011;10870;51.384;10.316;2023-02-28T00:51:14;2.42;;;1.70;;
21418;SDS011;10870;51.384;10.316;2023-02-28T00:53:15;3.67;;;2.55;;
21418;SDS011;10870;51.384;10.316;2023-02-28T00:55:17;2.15;;;1.83;;
21418;SDS011;10870;51.384;10.316;2023-02-28T00:57:18;2.47;;;2.00;;
21418;SDS011;10870;51.384;10.316;2023-02-28T00:59:22;2.92;;;2.17;;
21418;SDS011;10870;51.384;10.316;2023-02-28T01:01:25;2.78;;;2.03;;
21418;SDS011;10870;51.384;10.316;2023-02-28T01:03:27;4.47;;;2.10;;
21418;SDS011;10870;51.384;10.316;2023-02-28T01:05:28;7.25;;;2.15;;
21418;SDS011;10870;51.384;10.316;2023-02-28T01:07:29;3.17;;;2.33;;
21418;SDS011;10870;51.384;10.316;2023-02-28T01:09:34;4.25;;;2.40;;
21418;SDS011;10870;51.384;10.316;2023-02-28T01:11:35;3.22;;;2.42;;
21418;SDS011;10870;51.384;10.316;2023-02-28T01:13:37;3.50;;;2.90;;
21418;SDS011;10870;51.384;10.316;2023-02-28T01:15:42;3.25;;;2.63;;
21418;SDS011;10870;51.384;10.316;2023-02-28T01:17:47;2.65;;;2.38;;
21418;SDS011;10870;51.384;10.316;2023-02-28T01:19:52;3.17;;;2.38;;
21418;SDS011;10870;51.384;10.316;2023-02-28T01:21:54;2.70;;;2.45;;
21418;SDS011;10870;51.384;10.316;2023-02-28T01:23:56;4.82;;;2.50;;
21418;SDS011;10870;51.384;10.316;2023-02-28T01:26:03;3.35;;;2.30;;
21418;SDS011;10870;51.384;10.316;2023-02-28T01:28:05;3.00;;;2.33;;
21418;SDS011;10870;51.384;10.316;2023-02-28T01:30:10;3.28;;;2.22;;
21418;SDS011;10870;51.384;10.316;2023-02-28T01:32:15;2.95;;;1.98;;
21418;SDS011;10870;51.384;10.316;2023-02-28T01:34:16;3.45;;;2.00;;
21418;SDS011;10870;51.384;10.316;2023-02-28T01:36:20;2.53;;;1.98;;
21418;SDS011;10870;51.384;10.316;2023-02-28T01:38:26;3.38;;;2.13;;
21418;SDS011;10870;51.384;10.316;2023-02-28T01:40:28;4.45;;;2.40;;
21418;SDS011;10870;51.384;10.316;2023-02-28T01:42:29;3.22;;;2.28;;
21418;SDS011;10870;51.384;10.316;2023-02-28T01:46:51;2.85;;;2.08;;
21418;SDS011;10870;51.384;10.316;2023-02-28T01:48:56;2.63;;;2.40;;
21418;SDS011;10870;51.384;10.316;2023-02-28T01:50:59;2.78;;;1.80;;
21418;SDS011;10870;51.384;10.316;2023-02-28T01:53:03;3.05;;;2.10;;
21418;SDS011;10870;51.384;10.316;2023-02-28T01:55:07;4.07;;;1.92;;
21418;SDS011;10870;51.384;10.316;2023-02-28T01:57:11;3.45;;;2.60;;
21418;SDS011;10870;51.384;10.316;2023-02-28T01:59:20;4.47;;;2.33;;
21418;SDS011;10870;51.384;10.316;2023-02-28T02:01:23;2.58;;;2.00;;
21418;SDS011;10870;51.384;10.316;2023-02-28T02:03:26;4.55;;;2.80;;
21418;SDS011;10870;51.384;10.316;2023-02-28T02:05:28;3.70;;;2.58;;
21418;SDS011;10870;51.384;10.316;2023-02-28T02:07:35;5.95;;;3.40;;
21418;SDS011;10870;51.384;10.316;2023-02-28T02:09:38;3.75;;;2.25;;
21418;SDS011;10870;51.384;10.316;2023-02-28T02:11:40;5.10;;;2.40;;
21418;SDS011;10870;51.384;10.316;2023-02-28T02:13:56;2.85;;;1.90;;
21418;SDS011;10870;51.384;10.316;2023-02-28T02:25:17;4.00;;;2.47;;
21418;SDS011;10870;51.384;10.316;2023-02-28T02:33:16;3.80;;;2.63;;
21418;SDS011;10870;51.384;10.316;2023-02-28T02:34:59;4.38;;;2.65;;
21418;SDS011;10870;51.384;10.316;2023-02-28T02:37:49;4.00;;;2.70;;
21418;SDS011;10870;51.384;10.316;2023-02-28T02:43:37;4.22;;;2.72;;
21418;SDS011;10870;51.384;10.316;2023-02-28T02:47:56;4.22;;;2.40;;
21418;SDS011;10870;51.384;10.316;2023-02-28T02:50:01;5.22;;;3.50;;
21418;SDS011;10870;51.384;10.316;2023-02-28T02:52:07;3.35;;;2.70;;
21418;SDS011;10870;51.384;10.316;2023-02-28T02:54:26;4.57;;;3.35;;
21418;SDS011;10870;51.384;10.316;2023-02-28T02:56:31;3.90;;;2.90;;
21418;SDS011;10870;51.384;10.316;2023-02-28T02:58:35;5.32;;;3.15;;
21418;SDS011;10870;51.384;10.316;2023-02-28T03:00:45;4.15;;;2.53;;
21418;SDS011;10870;51.384;10.316;2023-02-28T03:02:49;3.03;;;2.65;;
21418;SDS011;10870;51.384;10.316;2023-02-28T03:07:28;3.97;;;3.55;;
21418;SDS011;10870;51.384;10.316;2023-02-28T03:09:32;3.70;;;3.28;;
21418;SDS011;10870;51.384;10.316;2023-02-28T03:11:36;3.38;;;2.63;;
21418;SDS011;10870;51.384;10.316;2023-02-28T03:15:53;6.72;;;2.85;;
21418;SDS011;10870;51.384;10.316;2023-02-28T03:18:06;3.65;;;2.42;;
21418;SDS011;10870;51.384;10.316;2023-02-28T03:21:00;5.13;;;2.63;;
21418;SDS011;10870;51.384;10.316;2023-02-28T03:25:06;5.70;;;2.35;;
21418;SDS011;10870;51.384;10.316;2023-02-28T03:27:21;3.20;;;2.67;;
21418;SDS011;10870;51.384;10.316;2023-02-28T03:29:43;4.60;;;2.80;;
21418;SDS011;10870;51.384;10.316;2023-02-28T03:31:58;5.60;;;2.92;;
21418;SDS011;10870;51.384;10.316;2023-02-28T03:36:08;4.82;;;3.00;;
21418;SDS011;10870;51.384;10.316;2023-02-28T03:38:23;3.60;;;3.30;;
21418;SDS011;10870;51.384;10.316;2023-02-28T03:40:27;4.18;;;2.40;;
21418;SDS011;10870;51.384;10.316;2023-02-28T03:42:35;4.32;;;2.85;;
21418;SDS011;10870;51.384;10.316;2023-02-28T03:44:45;4.00;;;2.63;;
21418;SDS011;10870;51.384;10.316;2023-02-28T03:47:02;3.92;;;2.60;;
21418;SDS011;10870;51.384;10.316;2023-02-28T03:49:15;5.25;;;2.80;;
21418;SDS011;10870;51.384;10.316;2023-02-28T03:51:18;2.70;;;2.50;;
21418;SDS011;10870;51.384;10.316;2023-02-28T03:53:27;8.75;;;3.00;;
21418;SDS011;10870;51.384;10.316;2023-02-28T03:55:30;4.35;;;3.22;;
21418;SDS011;10870;51.384;10.316;2023-02-28T03:57:37;3.80;;;2.92;;
21418;SDS011;10870;51.384;10.316;2023-02-28T03:59:42;5.75;;;3.50;;
21418;SDS011;10870;51.384;10.316;2023-02-28T04:01:45;2.65;;;2.40;;
21418;SDS011;10870;51.384;10.316;2023-02-28T04:03:49;4.93;;;2.63;;
21418;SDS011;10870;51.384;10.316;2023-02-28T04:05:53;6.72;;;2.63;;
21418;SDS011;10870;51.384;10.316;2023-02-28T04:08:02;4.75;;;2.47;;
21418;SDS011;10870;51.384;10.316;2023-02-28T04:10:04;6.88;;;3.45;;
21418;SDS011;10870;51.384;10.316;2023-02-28T04:12:06;4.82;;;2.75;;
21418;SDS011;10870;51.384;10.316;2023-02-28T04:14:08;5.38;;;2.72;;
21418;SDS011;10870;51.384;10.316;2023-02-28T04:16:10;5.30;;;2.83;;
21418;SDS011;10870;51.384;10.316;2023-02-28T04:18:12;4.55;;;3.50;;
21418;SDS011;10870;51.384;10.316;2023-02-28T04:20:19;3.75;;;2.50;;
21418;SDS011;10870;51.384;10.316;2023-02-28T04:22:23;6.55;;;2.33;;
21418;SDS011;10870;51.384;10.316;2023-02-28T04:24:28;5.20;;;2.95;;
21418;SDS011;10870;51.384;10.316;2023-02-28T04:26:33;5.57;;;2.72;;
21418;SDS011;10870;51.384;10.316;2023-02-28T04:28:36;3.28;;;2.97;;
21418;SDS011;10870;51.384;10.316;2023-02-28T04:30:37;3.55;;;2.47;;
21418;SDS011;10870;51.384;10.316;2023-02-28T04:32:39;2.20;;;2.00;;
21418;SDS011;10870;51.384;10.316;2023-02-28T04:34:41;3.65;;;2.60;;
21418;SDS011;10870;51.384;10.316;2023-02-28T04:36:42;3.63;;;2.40;;
21418;SDS011;10870;51.384;10.316;2023-02-28T04:38:49;2.63;;;2.42;;
21418;SDS011;10870;51.384;10.316;2023-02-28T04:40:53;3.90;;;2.40;;
21418;SDS011;10870;51.384;10.316;2023-02-28T04:42:56;4.75;;;2.10;;
21418;SDS011;10870;51.384;10.316;2023-02-28T04:44:58;3.90;;;2.50;;
21418;SDS011;10870;51.384;10.316;2023-02-28T04:47:00;5.63;;;2.92;;
21418;SDS011;10870;51.384;10.316;2023-02-28T04:49:03;5.15;;;2.50;;
21418;SDS011;10870;51.384;10.316;2023-02-28T04:51:17;4.20;;;2.60;;
21418;SDS011;10870;51.384;10.316;2023-02-28T04:53:19;4.22;;;2.65;;
21418;SDS011;10870;51.384;10.316;2023-02-28T04:55:20;3.05;;;2.40;;
21418;SDS011;10870;51.384;10.316;2023-02-28T04:57:22;4.82;;;2.72;;
21418;SDS011;10870;51.384;10.316;2023-02-28T04:59:23;4.00;;;2.47;;
21418;SDS011;10870;51.384;10.316;2023-02-28T05:01:35;5.75;;;2.85;;
21418;SDS011;10870;51.384;10.316;2023-02-28T05:03:37;3.33;;;2.53;;
21418;SDS011;10870;51.384;10.316;2023-02-28T05:05:38;6.38;;;2.75;;
21418;SDS011;10870;51.384;10.316;2023-02-28T05:07:43;3.17;;;2.60;;
21418;SDS011;10870;51.384;10.316;2023-02-28T05:09:45;3.53;;;2.42;;
21418;SDS011;10870;51.384;10.316;2023-02-28T05:11:48;3.53;;;2.53;;
21418;SDS011;10870;51.384;10.316;2023-02-28T05:13:52;4.45;;;2.80;;
21418;SDS011;10870;51.384;10.316;2023-02-28T05:15:58;3.85;;;2.28;;
21418;SDS011;10870;51.384;10.316;2023-02-28T05:18:04;5.55;;;2.78;;
21418;SDS011;10870;51.384;10.316;2023-02-28T05:20:07;4.05;;;2.72;;
21418;SDS011;10870;51.384;10.316;2023-02-28T05:22:13;4.60;;;2.65;;
21418;SDS011;10870;51.384;10.316;2023-02-28T05:24:19;4.18;;;3.00;;
21418;SDS011;10870;51.384;10.316;2023-02-28T05:26:23;4.85;;;2.95;;
21418;SDS011;10870;51.384;10.316;2023-02-28T05:28:24;5.45;;;3.00;;
21418;SDS011;10870;51.384;10.316;2023-02-28T05:30:26;10.45;;;3.00;;
21418;SDS011;10870;51.384;10.316;2023-02-28T05:32:27;3.72;;;2.63;;
21418;SDS011;10870;51.384;10.316;2023-02-28T05:34:29;4.30;;;2.53;;
21418;SDS011;10870;51.384;10.316;2023-02-28T05:36:30;3.78;;;2.97;;
21418;SDS011;10870;51.384;10.316;2023-02-28T05:38:39;4.82;;;3.13;;
21418;SDS011;10870;51.384;10.316;2023-02-28T05:40:41;7.18;;;2.80;;
21418;SDS011;10870;51.384;10.316;2023-02-28T05:42:42;3.47;;;2.83;;
21418;SDS011;10870;51.384;10.316;2023-02-28T05:44:43;4.43;;;2.85;;
21418;SDS011;10870;51.384;10.316;2023-02-28T05:46:47;4.65;;;2.92;;
21418;SDS011;10870;51.384;10.316;2023-02-28T05:48:51;6.10;;;3.00;;
21418;SDS011;10870;51.384;10.316;2023-02-28T05:50:56;5.68;;;2.88;;
21418;SDS011;10870;51.384;10.316;2023-02-28T05:53:00;4.85;;;3.13;;
21418;SDS011;10870;51.384;10.316;2023-02-28T05:55:03;4.65;;;2.70;;
21418;SDS011;10870;51.384;10.316;2023-02-28T05:57:04;6.15;;;3.17;;
21418;SDS011;10870;51.384;10.316;2023-02-28T05:59:09;5.13;;;2.95;;
21418;SDS011;10870;51.384;10.316;2023-02-28T06:03:36;5.10;;;2.88;;
21418;SDS011;10870;51.384;10.316;2023-02-28T06:05:39;6.30;;;2.90;;
21418;SDS011;10870;51.384;10.316;2023-02-28T06:07:41;6.55;;;4.03;;
21418;SDS011;10870;51.384;10.316;2023-02-28T06:09:48;5.97;;;3.22;;
21418;SDS011;10870;51.384;10.316;2023-02-28T06:11:50;6.65;;;3.03;;
21418;SDS011;10870;51.384;10.316;2023-02-28T06:14:02;4.35;;;3.00;;
21418;SDS011;10870;51.384;10.316;2023-02-28T06:16:04;4.25;;;2.92;;
21418;SDS011;10870;51.384;10.316;2023-02-28T06:18:14;4.43;;;2.63;;
21418;SDS011;10870;51.384;10.316;2023-02-28T06:20:19;5.68;;;3.45;;
21418;SDS011;10870;51.384;10.316;2023-02-28T06:22:32;9.27;;;4.20;;
21418;SDS011;10870;51.384;10.316;2023-02-28T06:24:33;6.47;;;3.97;;
21418;SDS011;10870;51.384;10.316;2023-02-28T06:26:40;9.90;;;4.13;;
21418;SDS011;10870;51.384;10.316;2023-02-28T06:28:41;8.52;;;3.75;;
21418;SDS011;10870;51.384;10.316;2023-02-28T06:30:50;8.43;;;3.67;;
21418;SDS011;10870;51.384;10.316;2023-02-28T06:33:00;5.25;;;3.13;;
21418;SDS011;10870;51.384;10.316;2023-02-28T06:35:05;5.63;;;4.03;;
21418;SDS011;10870;51.384;10.316;2023-02-28T06:37:09;9.13;;;4.43;;
21418;SDS011;10870;51.384;10.316;2023-02-28T06:39:14;7.38;;;4.07;;
21418;SDS011;10870;51.384;10.316;2023-02-28T06:41:17;9.02;;;3.92;;
21418;SDS011;10870;51.384;10.316;2023-02-28T06:43:28;5.82;;;3.63;;
21418;SDS011;10870;51.384;10.316;2023-02-28T06:45:30;7.72;;;4.75;;
21418;SDS011;10870;51.384;10.316;2023-02-28T06:47:43;5.95;;;3.95;;
21418;SDS011;10870;51.384;10.316;2023-02-28T06:49:44;6.85;;;3.78;;
21418;SDS011;10870;51.384;10.316;2023-02-28T06:51:48;6.75;;;4.10;;
21418;SDS011;10870;51.384;10.316;2023-02-28T06:53:52;7.05;;;3.88;;
21418;SDS011;10870;51.384;10.316;2023-02-28T06:56:03;5.85;;;3.35;;
21418;SDS011;10870;51.384;10.316;2023-02-28T06:58:22;4.35;;;3.53;;
21418;SDS011;10870;51.384;10.316;2023-02-28T07:00:29;8.02;;;3.85;;
21418;SDS011;10870;51.384;10.316;2023-02-28T07:02:33;7.25;;;3.95;;
21418;SDS011;10870;51.384;10.316;2023-02-28T07:04:35;8.88;;;4.20;;
21418;SDS011;10870;51.384;10.316;2023-02-28T07:06:36;9.15;;;4.47;;
21418;SDS011;10870;51.384;10.316;2023-02-28T07:08:44;9.65;;;5.03;;
21418;SDS011;10870;51.384;10.316;2023-02-28T07:11:05;5.93;;;4.32;;
21418;SDS011;10870;51.384;10.316;2023-02-28T07:13:11;7.85;;;4.25;;
21418;SDS011;10870;51.384;10.316;2023-02-28T07:15:19;5.05;;;3.53;;
21418;SDS011;10870;51.384;10.316;2023-02-28T07:17:21;5.60;;;3.72;;
21418;SDS011;10870;51.384;10.316;2023-02-28T07:19:23;8.75;;;4.35;;
21418;SDS011;10870;51.384;10.316;2023-02-28T07:21:24;5.35;;;3.70;;
21418;SDS011;10870;51.384;10.316;2023-02-28T07:23:28;5.93;;;4.00;;
21418;SDS011;10870;51.384;10.316;2023-02-28T07:25:30;6.03;;;4.20;;
21418;SDS011;10870;51.384;10.316;2023-02-28T07:27:31;8.38;;;4.05;;
21418;SDS011;10870;51.384;10.316;2023-02-28T07:29:34;7.13;;;3.97;;
21418;SDS011;10870;51.384;10.316;2023-02-28T07:31:36;7.70;;;4.35;;
21418;SDS011;10870;51.384;10.316;2023-02-28T07:33:40;5.72;;;3.97;;
21418;SDS011;10870;51.384;10.316;2023-02-28T07:35:41;8.25;;;4.32;;
21418;SDS011;10870;51.384;10.316;2023-02-28T07:37:43;6.40;;;3.58;;
21418;SDS011;10870;51.384;10.316;2023-02-28T07:39:47;10.05;;;4.13;;
21418;SDS011;10870;51.384;10.316;2023-02-28T07:41:57;7.18;;;4.40;;
21418;SDS011;10870;51.384;10.316;2023-02-28T07:44:00;8.40;;;4.65;;
21418;SDS011;10870;51.384;10.316;2023-02-28T07:46:04;8.38;;;4.65;;
21418;SDS011;10870;51.384;10.316;2023-02-28T07:48:06;9.10;;;5.10;;
21418;SDS011;10870;51.384;10.316;2023-02-28T07:50:15;5.88;;;4.05;;
21418;SDS011;10870;51.384;10.316;2023-02-28T07:52:17;9.18;;;4.30;;
21418;SDS011;10870;51.384;10.316;2023-02-28T07:54:23;11.02;;;4.85;;
21418;SDS011;10870;51.384;10.316;2023-02-28T07:56:24;6.05;;;4.30;;
21418;SDS011;10870;51.384;10.316;2023-02-28T07:58:30;8.10;;;4.40;;
21418;SDS011;10870;51.384;10.316;2023-02-28T08:00:32;7.85;;;5.00;;
21418;SDS011;10870;51.384;10.316;2023-02-28T08:02:36;7.85;;;4.57;;
21418;SDS011;10870;51.384;10.316;2023-02-28T08:04:38;8.30;;;5.13;;
21418;SDS011;10870;51.384;10.316;2023-02-28T08:06:39;8.65;;;5.18;;
21418;SDS011;10870;51.384;10.316;2023-02-28T08:08:40;8.93;;;5.28;;
21418;SDS011;10870;51.384;10.316;2023-02-28T08:10:44;6.18;;;4.47;;
21418;SDS011;10870;51.384;10.316;2023-02-28T08:12:46;7.43;;;4.32;;
21418;SDS011;10870;51.384;10.316;2023-02-28T08:14:47;7.65;;;4.63;;
21418;SDS011;10870;51.384;10.316;2023-02-28T08:16:51;9.75;;;4.85;;
21418;SDS011;10870;51.384;10.316;2023-02-28T08:18:56;8.45;;;4.82;;
21418;SDS011;10870;51.384;10.316;2023-02-28T08:20:58;6.13;;;4.15;;
21418;SDS011;10870;51.384;10.316;2023-02-28T08:22:59;7.07;;;5.28;;
21418;SDS011;10870;51.384;10.316;2023-02-28T08:25:00;7.53;;;4.80;;
21418;SDS011;10870;51.384;10.316;2023-02-28T08:27:04;8.77;;;5.18;;
21418;SDS011;10870;51.384;10.316;2023-02-28T08:29:05;5.50;;;4.82;;
21418;SDS011;10870;51.384;10.316;2023-02-28T08:31:08;7.78;;;4.55;;
21418;SDS011;10870;51.384;10.316;2023-02-28T08:33:11;6.20;;;4.32;;
21418;SDS011;10870;51.384;10.316;2023-02-28T08:35:15;6.65;;;4.82;;
21418;SDS011;10870;51.384;10.316;2023-02-28T08:37:19;7.85;;;4.45;;
21418;SDS011;10870;51.384;10.316;2023-02-28T08:39:20;7.63;;;5.78;;
21418;SDS011;10870;51.384;10.316;2023-02-28T08:41:22;7.18;;;4.80;;
21418;SDS011;10870;51.384;10.316;2023-02-28T08:43:23;6.88;;;4.90;;
21418;SDS011;10870;51.384;10.316;2023-02-28T08:45:27;9.63;;;5.55;;
21418;SDS011;10870;51.384;10.316;2023-02-28T08:47:28;9.55;;;4.78;;
21418;SDS011;10870;51.384;10.316;2023-02-28T08:49:37;8.27;;;5.53;;
21418;SDS011;10870;51.384;10.316;2023-02-28T08:51:38;8.30;;;5.18;;
21418;SDS011;10870;51.384;10.316;2023-02-28T08:53:40;7.13;;;5.57;;
21418;SDS011;10870;51.384;10.316;2023-02-28T08:55:47;6.70;;;4.47;;
21418;SDS011;10870;51.384;10.316;2023-02-28T08:57:50;6.07;;;5.13;;
21418;SDS011;10870;51.384;10.316;2023-02-28T08:59:54;5.43;;;4.90;;
21418;SDS011;10870;51.384;10.316;2023-02-28T09:01:56;7.35;;;5.68;;
21418;SDS011;10870;51.384;10.316;2023-02-28T09:04:02;7.75;;;4.38;;
21418;SDS011;10870;51.384;10.316;2023-02-28T09:06:03;6.40;;;4.75;;
21418;SDS011;10870;51.384;10.316;2023-02-28T09:08:05;5.28;;;4.07;;
21418;SDS011;10870;51.384;10.316;2023-02-28T09:10:09;11.63;;;4.63;;
21418;SDS011;10870;51.384;10.316;2023-02-28T09:12:12;7.53;;;4.50;;
21418;SDS011;10870;51.384;10.316;2023-02-28T09:14:17;6.10;;;4.75;;
21418;SDS011;10870;51.384;10.316;2023-02-28T09:16:18;4.70;;;3.97;;
21418;SDS011;10870;51.384;10.316;2023-02-28T09:18:20;6.40;;;5.10;;
21418;SDS011;10870;51.384;10.316;2023-02-28T09:20:21;5.63;;;4.50;;
21418;SDS011;10870;51.384;10.316;2023-02-28T09:22:25;5.82;;;4.97;;
21418;SDS011;10870;51.384;10.316;2023-02-28T09:27:12;6.50;;;4.40;;
21418;SDS011;10870;51.384;10.316;2023-02-28T09:29:38;7.70;;;5.00;;
21418;SDS011;10870;51.384;10.316;2023-02-28T09:31:53;6.35;;;4.13;;
21418;SDS011;10870;51.384;10.316;2023-02-28T09:33:57;10.40;;;4.65;;
21418;SDS011;10870;51.384;10.316;2023-02-28T09:36:03;6.47;;;4.10;;
21418;SDS011;10870;51.384;10.316;2023-02-28T09:38:05;5.38;;;4.40;;
21418;SDS011;10870;51.384;10.316;2023-02-28T09:40:08;6.82;;;4.93;;
21418;SDS011;10870;51.384;10.316;2023-02-28T09:42:28;7.90;;;4.60;;
21418;SDS011;10870;51.384;10.316;2023-02-28T09:44:37;7.60;;;4.50;;
21418;SDS011;10870;51.384;10.316;2023-02-28T09:47:05;5.03;;;4.53;;
21418;SDS011;10870;51.384;10.316;2023-02-28T09:49:19;9.32;;;4.72;;
21418;SDS011;10870;51.384;10.316;2023-02-28T09:51:27;5.97;;;4.82;;
21418;SDS011;10870;51.384;10.316;2023-02-28T09:53:34;11.52;;;5.20;;
21418;SDS011;10870;51.384;10.316;2023-02-28T09:55:44;8.23;;;5.07;;
21418;SDS011;10870;51.384;10.316;2023-02-28T09:57:48;10.88;;;5.40;;
21418;SDS011;10870;51.384;10.316;2023-02-28T10:00:34;9.23;;;5.10;;
21418;SDS011;10870;51.384;10.316;2023-02-28T10:04:40;5.63;;;4.55;;
21418;SDS011;10870;51.384;10.316;2023-02-28T10:06:46;6.43;;;4.68;;
21418;SDS011;10870;51.384;10.316;2023-02-28T10:10:55;7.70;;;4.82;;
21418;SDS011;10870;51.384;10.316;2023-02-28T10:13:00;8.90;;;4.60;;
21418;SDS011;10870;51.384;10.316;2023-02-28T10:15:03;10.25;;;5.50;;
21418;SDS011;10870;51.384;10.316;2023-02-28T10:17:15;5.68;;;4.80;;
21418;SDS011;10870;51.384;10.316;2023-02-28T10:19:22;7.43;;;5.00;;
21418;SDS011;10870;51.384;10.316;2023-02-28T10:22:10;5.53;;;3.73;;
21418;SDS011;10870;51.384;10.316;2023-02-28T10:24:03;5.32;;;4.57;;
21418;SDS011;10870;51.384;10.316;2023-02-28T10:26:11;8.32;;;4.55;;
21418;SDS011;10870;51.384;10.316;2023-02-28T10:28:16;7.57;;;4.40;;
21418;SDS011;10870;51.384;10.316;2023-02-28T10:30:23;5.65;;;4.38;;
21418;SDS011;10870;51.384;10.316;2023-02-28T10:32:33;6.18;;;4.20;;
21418;SDS011;10870;51.384;10.316;2023-02-28T10:34:35;6.53;;;4.63;;
21418;SDS011;10870;51.384;10.316;2023-02-28T10:36:36;6.25;;;4.03;;
21418;SDS011;10870;51.384;10.316;2023-02-28T10:38:39;5.45;;;4.45;;
21418;SDS011;10870;51.384;10.316;2023-02-28T10:40:43;9.38;;;5.15;;
21418;SDS011;10870;51.384;10.316;2023-02-28T10:42:58;6.38;;;5.18;;
21418;SDS011;10870;51.384;10.316;2023-02-28T10:47:21;7.18;;;5.03;;
21418;SDS011;10870;51.384;10.316;2023-02-28T10:49:25;6.57;;;4.53;;
21418;SDS011;10870;51.384;10.316;2023-02-28T10:51:33;7.95;;;5.15;;
21418;SDS011;10870;51.384;10.316;2023-02-28T10:53:37;5.18;;;4.43;;
21418;SDS011;10870;51.384;10.316;2023-02-28T10:55:39;6.32;;;5.40;;
21418;SDS011;10870;51.384;10.316;2023-02-28T10:57:40;6.60;;;4.97;;
21418;SDS011;10870;51.384;10.316;2023-02-28T10:59:41;6.50;;;5.13;;
21418;SDS011;10870;51.384;10.316;2023-02-28T11:01:46;8.50;;;4.88;;
21418;SDS011;10870;51.384;10.316;2023-02-28T11:03:53;7.90;;;5.50;;
21418;SDS011;10870;51.384;10.316;2023-02-28T11:05:55;7.32;;;5.32;;
21418;SDS011;10870;51.384;10.316;2023-02-28T11:07:59;9.63;;;5.45;;
21418;SDS011;10870;51.384;10.316;2023-02-28T11:10:03;7.50;;;5.47;;
21418;SDS011;10870;51.384;10.316;2023-02-28T11:12:19;6.20;;;5.60;;
21418;SDS011;10870;51.384;10.316;2023-02-28T11:14:22;8.05;;;5.70;;
21418;SDS011;10870;51.384;10.316;2023-02-28T11:16:32;6.15;;;4.70;;
21418;SDS011;10870;51.384;10.316;2023-02-28T11:18:39;9.68;;;5.68;;
21418;SDS011;10870;51.384;10.316;2023-02-28T11:20:41;8.43;;;5.40;;
21418;SDS011;10870;51.384;10.316;2023-02-28T11:22:43;7.80;;;4.85;;
21418;SDS011;10870;51.384;10.316;2023-02-28T11:24:47;7.47;;;5.10;;
21418;SDS011;10870;51.384;10.316;2023-02-28T11:26:53;6.03;;;5.35;;
21418;SDS011;10870;51.384;10.316;2023-02-28T11:29:18;9.88;;;5.03;;
21418;SDS011;10870;51.384;10.316;2023-02-28T11:31:19;7.20;;;5.32;;
21418;SDS011;10870;51.384;10.316;2023-02-28T11:35:33;10.10;;;6.47;;
21418;SDS011;10870;51.384;10.316;2023-02-28T11:37:38;8.13;;;5.57;;
21418;SDS011;10870;51.384;10.316;2023-02-28T11:39:40;6.45;;;5.35;;
21418;SDS011;10870;51.384;10.316;2023-02-28T11:48:39;6.75;;;5.22;;
21418;SDS011;10870;51.384;10.316;2023-02-28T11:52:56;6.32;;;5.20;;
21418;SDS011;10870;51.384;10.316;2023-02-28T12:06:25;7.72;;;5.45;;
21418;SDS011;10870;51.384;10.316;2023-02-28T12:19:44;7.13;;;5.72;;
21418;SDS011;10870;51.384;10.316;2023-02-28T12:24:00;7.65;;;5.78;;
21418;SDS011;10870;51.384;10.316;2023-02-28T12:28:13;8.23;;;6.35;;
21418;SDS011;10870;51.384;10.316;2023-02-28T12:30:26;11.00;;;6.43;;
21418;SDS011;10870;51.384;10.316;2023-02-28T12:32:32;7.25;;;6.32;;
21418;SDS011;10870;51.384;10.316;2023-02-28T12:34:39;7.85;;;5.97;;
21418;SDS011;10870;51.384;10.316;2023-02-28T12:36:42;9.10;;;6.47;;
21418;SDS011;10870;51.384;10.316;2023-02-28T12:38:49;7.80;;;5.93;;
21418;SDS011;10870;51.384;10.316;2023-02-28T12:41:05;8.70;;;6.43;;
21418;SDS011;10870;51.384;10.316;2023-02-28T12:43:12;8.38;;;5.85;;
21418;SDS011;10870;51.384;10.316;2023-02-28T12:47:20;9.90;;;6.70;;
21418;SDS011;10870;51.384;10.316;2023-02-28T12:49:23;11.63;;;6.22;;
21418;SDS011;10870;51.384;10.316;2023-02-28T12:51:30;9.43;;;6.85;;
21418;SDS011;10870;51.384;10.316;2023-02-28T13:00:18;6.47;;;5.68;;
21418;SDS011;10870;51.384;10.316;2023-02-28T13:11:00;7.00;;;6.13;;
21418;SDS011;10870;51.384;10.316;2023-02-28T13:13:03;9.50;;;7.20;;
21418;SDS011;10870;51.384;10.316;2023-02-28T13:19:10;8.52;;;5.88;;
21418;SDS011;10870;51.384;10.316;2023-02-28T13:27:47;9.18;;;6.88;;
21418;SDS011;10870;51.384;10.316;2023-02-28T13:29:54;9.68;;;7.40;;
21418;SDS011;10870;51.384;10.316;2023-02-28T13:34:13;9.07;;;6.80;;
21418;SDS011;10870;51.384;10.316;2023-02-28T13:38:25;7.90;;;6.40;;
21418;SDS011;10870;51.384;10.316;2023-02-28T13:40:33;7.95;;;6.13;;
21418;SDS011;10870;51.384;10.316;2023-02-28T13:42:47;10.55;;;7.03;;
21418;SDS011;10870;51.384;10.316;2023-02-28T13:49:49;7.85;;;6.93;;
21418;SDS011;10870;51.384;10.316;2023-02-28T13:51:49;9.73;;;6.82;;
21418;SDS011;10870;51.384;10.316;2023-02-28T13:53:56;11.85;;;7.13;;
21418;SDS011;10870;51.384;10.316;2023-02-28T14:02:56;10.27;;;7.68;;
21418;SDS011;10870;51.384;10.316;2023-02-28T14:07:19;8.90;;;8.00;;
21418;SDS011;10870;51.384;10.316;2023-02-28T14:13:43;9.75;;;8.00;;
21418;SDS011;10870;51.384;10.316;2023-02-28T14:18:33;9.85;;;7.65;;
21418;SDS011;10870;51.384;10.316;2023-02-28T14:20:36;9.10;;;7.13;;
21418;SDS011;10870;51.384;10.316;2023-02-28T14:22:48;11.50;;;8.30;;
21418;SDS011;10870;51.384;10.316;2023-02-28T14:31:57;8.70;;;7.03;;
21418;SDS011;10870;51.384;10.316;2023-02-28T14:34:20;13.63;;;6.95;;
21418;SDS011;10870;51.384;10.316;2023-02-28T14:36:27;11.98;;;7.38;;
21418;SDS011;10870;51.384;10.316;2023-02-28T14:39:06;10.65;;;7.20;;
21418;SDS011;10870;51.384;10.316;2023-02-28T14:41:00;8.88;;;6.75;;
21418;SDS011;10870;51.384;10.316;2023-02-28T14:43:04;9.25;;;6.30;;
21418;SDS011;10870;51.384;10.316;2023-02-28T14:45:06;12.15;;;7.18;;
21418;SDS011;10870;51.384;10.316;2023-02-28T14:47:11;7.43;;;6.65;;